sensor_id;sensor_type;location;lat;lon;timestamp;P1;durP1;ratioP1;P2;durP2;ratioP2
64684;SDS011;51109;47.414;18.954;2024-03-02T00:00:21;48.80;;;26.60;;
64684;SDS011;51109;47.414;18.954;2024-03-02T00:02:48;45.70;;;26.55;;
64684;SDS011;51109;47.414;18.954;2024-03-02T00:05:16;49.60;;;26.58;;
64684;SDS011;51109;47.414;18.954;2024-03-02T00:07:54;44.17;;;26.30;;
64684;SDS011;51109;47.414;18.954;2024-03-02T00:10:27;45.08;;;27.42;;
64684;SDS011;51109;47.414;18.954;2024-03-02T00:13:06;47.42;;;26.58;;
64684;SDS011;51109;47.414;18.954;2024-03-02T00:18:12;50.40;;;27.15;;
64684;SDS011;51109;47.414;18.954;2024-03-02T00:20:40;44.78;;;27.30;;
64684;SDS011;51109;47.414;18.954;2024-03-02T00:23:06;41.80;;;25.70;;
64684;SDS011;51109;47.414;18.954;2024-03-02T00:25:40;44.35;;;25.88;;
64684;SDS011;51109;47.414;18.954;2024-03-02T00:28:21;49.45;;;28.35;;
64684;SDS011;51109;47.414;18.954;2024-03-02T00:30:55;43.63;;;26.40;;
64684;SDS011;51109;47.414;18.954;2024-03-02T00:33:34;52.45;;;27.15;;
64684;SDS011;51109;47.414;18.954;2024-03-02T00:36:05;44.50;;;26.42;;
64684;SDS011;51109;47.414;18.954;2024-03-02T00:38:32;42.80;;;26.00;;
64684;SDS011;51109;47.414;18.954;2024-03-02T00:41:00;51.30;;;27.38;;
64684;SDS011;51109;47.414;18.954;2024-03-02T00:43:41;49.05;;;25.85;;
64684;SDS011;51109;47.414;18.954;2024-03-02T00:46:22;47.58;;;26.05;;
64684;SDS011;51109;47.414;18.954;2024-03-02T00:48:51;46.20;;;26.98;;
64684;SDS011;51109;47.414;18.954;2024-03-02T00:51:20;41.22;;;25.67;;
64684;SDS011;51109;47.414;18.954;2024-03-02T00:53:47;42.88;;;25.33;;
64684;SDS011;51109;47.414;18.954;2024-03-02T00:56:13;45.08;;;24.98;;
64684;SDS011;51109;47.414;18.954;2024-03-02T00:58:39;39.65;;;24.77;;
64684;SDS011;51109;47.414;18.954;2024-03-02T01:01:05;50.33;;;26.27;;
64684;SDS011;51109;47.414;18.954;2024-03-02T01:03:33;40.03;;;24.52;;
64684;SDS011;51109;47.414;18.954;2024-03-02T01:05:59;41.65;;;23.98;;
64684;SDS011;51109;47.414;18.954;2024-03-02T01:08:25;42.35;;;24.23;;
64684;SDS011;51109;47.414;18.954;2024-03-02T01:10:51;38.90;;;23.40;;
64684;SDS011;51109;47.414;18.954;2024-03-02T01:13:17;41.72;;;22.60;;
64684;SDS011;51109;47.414;18.954;2024-03-02T01:15:43;40.00;;;23.10;;
64684;SDS011;51109;47.414;18.954;2024-03-02T01:18:09;44.45;;;22.45;;
64684;SDS011;51109;47.414;18.954;2024-03-02T01:20:34;36.85;;;21.80;;
64684;SDS011;51109;47.414;18.954;2024-03-02T01:23:00;38.55;;;22.00;;
64684;SDS011;51109;47.414;18.954;2024-03-02T01:25:26;40.15;;;22.42;;
64684;SDS011;51109;47.414;18.954;2024-03-02T01:27:52;43.13;;;22.38;;
64684;SDS011;51109;47.414;18.954;2024-03-02T01:30:18;42.78;;;23.80;;
64684;SDS011;51109;47.414;18.954;2024-03-02T01:32:44;38.67;;;24.75;;
64684;SDS011;51109;47.414;18.954;2024-03-02T01:35:09;47.10;;;26.38;;
64684;SDS011;51109;47.414;18.954;2024-03-02T01:37:35;39.53;;;24.05;;
64684;SDS011;51109;47.414;18.954;2024-03-02T01:40:01;45.85;;;25.42;;
64684;SDS011;51109;47.414;18.954;2024-03-02T01:42:28;45.22;;;26.02;;
64684;SDS011;51109;47.414;18.954;2024-03-02T01:44:54;39.60;;;24.30;;
64684;SDS011;51109;47.414;18.954;2024-03-02T01:47:20;43.10;;;24.45;;
64684;SDS011;51109;47.414;18.954;2024-03-02T01:49:45;44.88;;;24.45;;
64684;SDS011;51109;47.414;18.954;2024-03-02T01:52:11;41.15;;;23.60;;
64684;SDS011;51109;47.414;18.954;2024-03-02T01:54:37;42.40;;;23.52;;
64684;SDS011;51109;47.414;18.954;2024-03-02T01:57:03;45.50;;;25.58;;
64684;SDS011;51109;47.414;18.954;2024-03-02T01:59:29;44.15;;;24.88;;
64684;SDS011;51109;47.414;18.954;2024-03-02T02:01:55;40.17;;;23.98;;
64684;SDS011;51109;47.414;18.954;2024-03-02T02:04:20;44.20;;;24.80;;
64684;SDS011;51109;47.414;18.954;2024-03-02T02:06:52;40.10;;;24.05;;
64684;SDS011;51109;47.414;18.954;2024-03-02T02:09:18;42.70;;;23.73;;
64684;SDS011;51109;47.414;18.954;2024-03-02T02:11:44;43.97;;;24.48;;
64684;SDS011;51109;47.414;18.954;2024-03-02T02:14:10;44.55;;;23.30;;
64684;SDS011;51109;47.414;18.954;2024-03-02T02:16:36;43.63;;;24.80;;
64684;SDS011;51109;47.414;18.954;2024-03-02T02:19:02;44.28;;;24.23;;
64684;SDS011;51109;47.414;18.954;2024-03-02T02:21:28;45.80;;;25.35;;
64684;SDS011;51109;47.414;18.954;2024-03-02T02:23:59;42.28;;;23.45;;
64684;SDS011;51109;47.414;18.954;2024-03-02T02:26:28;46.97;;;25.88;;
64684;SDS011;51109;47.414;18.954;2024-03-02T02:28:54;48.60;;;26.58;;
64684;SDS011;51109;47.414;18.954;2024-03-02T02:31:20;43.92;;;25.02;;
64684;SDS011;51109;47.414;18.954;2024-03-02T02:33:46;40.22;;;22.33;;
64684;SDS011;51109;47.414;18.954;2024-03-02T02:36:11;41.22;;;22.75;;
64684;SDS011;51109;47.414;18.954;2024-03-02T02:38:38;39.40;;;22.83;;
64684;SDS011;51109;47.414;18.954;2024-03-02T02:41:09;37.35;;;22.15;;
64684;SDS011;51109;47.414;18.954;2024-03-02T02:43:35;36.35;;;22.48;;
64684;SDS011;51109;47.414;18.954;2024-03-02T02:46:00;43.30;;;24.10;;
64684;SDS011;51109;47.414;18.954;2024-03-02T02:48:26;38.22;;;22.50;;
64684;SDS011;51109;47.414;18.954;2024-03-02T02:50:52;43.58;;;23.45;;
64684;SDS011;51109;47.414;18.954;2024-03-02T02:53:18;41.28;;;22.80;;
64684;SDS011;51109;47.414;18.954;2024-03-02T02:55:44;39.30;;;22.75;;
64684;SDS011;51109;47.414;18.954;2024-03-02T02:58:10;39.72;;;23.33;;
64684;SDS011;51109;47.414;18.954;2024-03-02T03:00:36;38.63;;;22.70;;
64684;SDS011;51109;47.414;18.954;2024-03-02T03:03:01;41.08;;;24.65;;
64684;SDS011;51109;47.414;18.954;2024-03-02T03:05:27;36.85;;;22.00;;
64684;SDS011;51109;47.414;18.954;2024-03-02T03:07:53;37.22;;;22.85;;
64684;SDS011;51109;47.414;18.954;2024-03-02T03:10:19;43.00;;;23.38;;
64684;SDS011;51109;47.414;18.954;2024-03-02T03:12:47;39.50;;;22.38;;
64684;SDS011;51109;47.414;18.954;2024-03-02T03:15:13;41.10;;;23.70;;
64684;SDS011;51109;47.414;18.954;2024-03-02T03:17:39;44.03;;;24.10;;
64684;SDS011;51109;47.414;18.954;2024-03-02T03:20:06;41.55;;;24.88;;
64684;SDS011;51109;47.414;18.954;2024-03-02T03:22:35;44.90;;;23.98;;
64684;SDS011;51109;47.414;18.954;2024-03-02T03:25:01;44.75;;;24.13;;
64684;SDS011;51109;47.414;18.954;2024-03-02T03:27:28;43.83;;;23.45;;
64684;SDS011;51109;47.414;18.954;2024-03-02T03:29:54;39.85;;;22.45;;
64684;SDS011;51109;47.414;18.954;2024-03-02T03:32:20;45.00;;;24.13;;
64684;SDS011;51109;47.414;18.954;2024-03-02T03:34:46;46.00;;;24.58;;
64684;SDS011;51109;47.414;18.954;2024-03-02T03:37:13;44.50;;;24.08;;
64684;SDS011;51109;47.414;18.954;2024-03-02T03:39:40;39.35;;;24.08;;
64684;SDS011;51109;47.414;18.954;2024-03-02T03:42:06;42.25;;;23.95;;
64684;SDS011;51109;47.414;18.954;2024-03-02T03:44:32;44.78;;;23.73;;
64684;SDS011;51109;47.414;18.954;2024-03-02T03:46:58;43.65;;;24.23;;
64684;SDS011;51109;47.414;18.954;2024-03-02T03:49:26;42.20;;;25.38;;
64684;SDS011;51109;47.414;18.954;2024-03-02T03:51:51;44.70;;;24.55;;
64684;SDS011;51109;47.414;18.954;2024-03-02T03:54:17;46.05;;;26.23;;
64684;SDS011;51109;47.414;18.954;2024-03-02T03:56:43;50.28;;;26.38;;
64684;SDS011;51109;47.414;18.954;2024-03-02T03:59:09;52.50;;;26.42;;
64684;SDS011;51109;47.414;18.954;2024-03-02T04:01:35;41.75;;;26.58;;
64684;SDS011;51109;47.414;18.954;2024-03-02T04:04:01;45.67;;;26.90;;
64684;SDS011;51109;47.414;18.954;2024-03-02T04:06:28;43.95;;;25.35;;
64684;SDS011;51109;47.414;18.954;2024-03-02T04:08:55;48.80;;;26.58;;
64684;SDS011;51109;47.414;18.954;2024-03-02T04:11:21;49.47;;;26.60;;
64684;SDS011;51109;47.414;18.954;2024-03-02T04:13:47;50.40;;;27.48;;
64684;SDS011;51109;47.414;18.954;2024-03-02T04:16:12;44.40;;;26.02;;
64684;SDS011;51109;47.414;18.954;2024-03-02T04:18:38;48.95;;;26.35;;
64684;SDS011;51109;47.414;18.954;2024-03-02T04:21:05;50.15;;;28.23;;
64684;SDS011;51109;47.414;18.954;2024-03-02T04:23:30;47.50;;;27.10;;
64684;SDS011;51109;47.414;18.954;2024-03-02T04:25:56;50.22;;;27.52;;
64684;SDS011;51109;47.414;18.954;2024-03-02T04:28:22;52.13;;;29.73;;
64684;SDS011;51109;47.414;18.954;2024-03-02T04:30:47;51.47;;;27.83;;
64684;SDS011;51109;47.414;18.954;2024-03-02T04:33:13;56.60;;;29.27;;
64684;SDS011;51109;47.414;18.954;2024-03-02T04:35:39;58.15;;;29.98;;
64684;SDS011;51109;47.414;18.954;2024-03-02T04:38:05;50.63;;;28.67;;
64684;SDS011;51109;47.414;18.954;2024-03-02T04:40:30;53.25;;;29.13;;
64684;SDS011;51109;47.414;18.954;2024-03-02T04:42:57;58.10;;;29.77;;
64684;SDS011;51109;47.414;18.954;2024-03-02T04:45:24;54.50;;;30.25;;
64684;SDS011;51109;47.414;18.954;2024-03-02T04:47:50;56.40;;;30.00;;
64684;SDS011;51109;47.414;18.954;2024-03-02T04:50:15;55.88;;;30.13;;
64684;SDS011;51109;47.414;18.954;2024-03-02T04:52:41;66.28;;;30.88;;
64684;SDS011;51109;47.414;18.954;2024-03-02T04:55:07;61.20;;;31.58;;
64684;SDS011;51109;47.414;18.954;2024-03-02T04:58:00;67.73;;;32.77;;
64684;SDS011;51109;47.414;18.954;2024-03-02T05:00:26;65.28;;;33.03;;
64684;SDS011;51109;47.414;18.954;2024-03-02T05:02:52;62.00;;;31.98;;
64684;SDS011;51109;47.414;18.954;2024-03-02T05:05:17;61.05;;;32.47;;
64684;SDS011;51109;47.414;18.954;2024-03-02T05:07:43;70.38;;;33.25;;
64684;SDS011;51109;47.414;18.954;2024-03-02T05:10:09;62.50;;;34.20;;
64684;SDS011;51109;47.414;18.954;2024-03-02T05:12:37;72.03;;;34.20;;
64684;SDS011;51109;47.414;18.954;2024-03-02T05:15:21;66.47;;;34.20;;
64684;SDS011;51109;47.414;18.954;2024-03-02T05:17:47;70.30;;;34.75;;
64684;SDS011;51109;47.414;18.954;2024-03-02T05:20:13;61.40;;;34.25;;
64684;SDS011;51109;47.414;18.954;2024-03-02T05:22:39;70.45;;;35.10;;
64684;SDS011;51109;47.414;18.954;2024-03-02T05:25:06;69.22;;;34.28;;
64684;SDS011;51109;47.414;18.954;2024-03-02T05:27:32;67.32;;;35.47;;
64684;SDS011;51109;47.414;18.954;2024-03-02T05:29:58;78.15;;;36.60;;
64684;SDS011;51109;47.414;18.954;2024-03-02T05:32:25;70.00;;;36.85;;
64684;SDS011;51109;47.414;18.954;2024-03-02T05:34:51;77.88;;;38.67;;
64684;SDS011;51109;47.414;18.954;2024-03-02T05:37:17;74.78;;;38.05;;
64684;SDS011;51109;47.414;18.954;2024-03-02T05:39:43;80.95;;;38.13;;
64684;SDS011;51109;47.414;18.954;2024-03-02T05:42:09;77.50;;;38.60;;
64684;SDS011;51109;47.414;18.954;2024-03-02T05:44:35;86.93;;;39.92;;
64684;SDS011;51109;47.414;18.954;2024-03-02T05:47:02;77.00;;;39.13;;
64684;SDS011;51109;47.414;18.954;2024-03-02T05:49:28;81.95;;;38.03;;
64684;SDS011;51109;47.414;18.954;2024-03-02T05:51:54;73.05;;;38.58;;
64684;SDS011;51109;47.414;18.954;2024-03-02T05:54:20;77.05;;;38.25;;
64684;SDS011;51109;47.414;18.954;2024-03-02T05:56:49;77.80;;;36.90;;
64684;SDS011;51109;47.414;18.954;2024-03-02T05:59:15;73.82;;;36.25;;
64684;SDS011;51109;47.414;18.954;2024-03-02T06:01:42;74.70;;;36.28;;
64684;SDS011;51109;47.414;18.954;2024-03-02T06:04:09;67.95;;;37.38;;
64684;SDS011;51109;47.414;18.954;2024-03-02T06:06:38;79.30;;;38.10;;
64684;SDS011;51109;47.414;18.954;2024-03-02T06:09:05;71.65;;;37.13;;
64684;SDS011;51109;47.414;18.954;2024-03-02T06:11:34;77.30;;;39.10;;
64684;SDS011;51109;47.414;18.954;2024-03-02T06:14:02;86.65;;;39.95;;
64684;SDS011;51109;47.414;18.954;2024-03-02T06:16:29;70.82;;;38.65;;
64684;SDS011;51109;47.414;18.954;2024-03-02T06:18:55;76.00;;;38.70;;
64684;SDS011;51109;47.414;18.954;2024-03-02T06:21:23;74.18;;;38.13;;
64684;SDS011;51109;47.414;18.954;2024-03-02T06:23:49;81.38;;;39.88;;
64684;SDS011;51109;47.414;18.954;2024-03-02T06:26:15;74.47;;;39.13;;
64684;SDS011;51109;47.414;18.954;2024-03-02T06:28:41;70.57;;;38.90;;
64684;SDS011;51109;47.414;18.954;2024-03-02T06:31:08;79.45;;;40.38;;
64684;SDS011;51109;47.414;18.954;2024-03-02T06:33:34;79.60;;;39.85;;
64684;SDS011;51109;47.414;18.954;2024-03-02T06:36:00;82.97;;;39.38;;
64684;SDS011;51109;47.414;18.954;2024-03-02T06:38:26;79.05;;;37.17;;
64684;SDS011;51109;47.414;18.954;2024-03-02T06:40:52;76.57;;;40.28;;
64684;SDS011;51109;47.414;18.954;2024-03-02T06:43:18;78.30;;;41.83;;
64684;SDS011;51109;47.414;18.954;2024-03-02T06:45:44;92.97;;;43.38;;
64684;SDS011;51109;47.414;18.954;2024-03-02T06:48:09;88.35;;;44.10;;
64684;SDS011;51109;47.414;18.954;2024-03-02T06:50:35;99.82;;;44.10;;
64684;SDS011;51109;47.414;18.954;2024-03-02T06:53:01;95.85;;;44.30;;
64684;SDS011;51109;47.414;18.954;2024-03-02T06:55:29;90.60;;;43.50;;
64684;SDS011;51109;47.414;18.954;2024-03-02T06:57:55;90.30;;;46.40;;
64684;SDS011;51109;47.414;18.954;2024-03-02T07:00:21;100.78;;;45.55;;
64684;SDS011;51109;47.414;18.954;2024-03-02T07:02:46;95.93;;;44.08;;
64684;SDS011;51109;47.414;18.954;2024-03-02T07:05:12;89.05;;;44.72;;
64684;SDS011;51109;47.414;18.954;2024-03-02T07:07:38;96.88;;;45.17;;
64684;SDS011;51109;47.414;18.954;2024-03-02T07:10:04;87.90;;;44.53;;
64684;SDS011;51109;47.414;18.954;2024-03-02T07:12:33;94.13;;;45.72;;
64684;SDS011;51109;47.414;18.954;2024-03-02T07:14:59;101.75;;;44.53;;
64684;SDS011;51109;47.414;18.954;2024-03-02T07:17:28;93.18;;;45.22;;
64684;SDS011;51109;47.414;18.954;2024-03-02T07:19:54;88.15;;;42.80;;
64684;SDS011;51109;47.414;18.954;2024-03-02T07:22:20;88.28;;;43.10;;
64684;SDS011;51109;47.414;18.954;2024-03-02T07:24:46;79.88;;;41.95;;
64684;SDS011;51109;47.414;18.954;2024-03-02T07:27:13;84.28;;;43.63;;
64684;SDS011;51109;47.414;18.954;2024-03-02T07:29:39;92.18;;;45.67;;
64684;SDS011;51109;47.414;18.954;2024-03-02T07:32:05;92.03;;;45.38;;
64684;SDS011;51109;47.414;18.954;2024-03-02T07:34:32;89.55;;;47.10;;
64684;SDS011;51109;47.414;18.954;2024-03-02T07:36:58;94.30;;;45.42;;
64684;SDS011;51109;47.414;18.954;2024-03-02T07:39:24;86.57;;;44.53;;
64684;SDS011;51109;47.414;18.954;2024-03-02T07:41:50;96.70;;;46.67;;
64684;SDS011;51109;47.414;18.954;2024-03-02T07:44:16;85.00;;;44.72;;
64684;SDS011;51109;47.414;18.954;2024-03-02T07:46:47;91.50;;;46.13;;
64684;SDS011;51109;47.414;18.954;2024-03-02T07:49:16;90.87;;;42.27;;
64684;SDS011;51109;47.414;18.954;2024-03-02T07:51:43;81.32;;;43.55;;
64684;SDS011;51109;47.414;18.954;2024-03-02T07:54:09;81.38;;;42.80;;
64684;SDS011;51109;47.414;18.954;2024-03-02T07:56:35;88.78;;;44.17;;
64684;SDS011;51109;47.414;18.954;2024-03-02T07:59:01;89.07;;;44.97;;
64684;SDS011;51109;47.414;18.954;2024-03-02T08:01:28;92.63;;;46.38;;
64684;SDS011;51109;47.414;18.954;2024-03-02T08:04:00;89.40;;;45.53;;
64684;SDS011;51109;47.414;18.954;2024-03-02T08:06:28;93.25;;;43.90;;
64684;SDS011;51109;47.414;18.954;2024-03-02T08:08:55;85.72;;;44.95;;
64684;SDS011;51109;47.414;18.954;2024-03-02T08:11:21;84.25;;;44.75;;
64684;SDS011;51109;47.414;18.954;2024-03-02T08:13:48;104.10;;;46.22;;
64684;SDS011;51109;47.414;18.954;2024-03-02T08:16:17;92.82;;;44.67;;
64684;SDS011;51109;47.414;18.954;2024-03-02T08:18:47;88.57;;;44.00;;
64684;SDS011;51109;47.414;18.954;2024-03-02T08:21:14;89.30;;;44.75;;
64684;SDS011;51109;47.414;18.954;2024-03-02T08:23:40;77.68;;;42.22;;
64684;SDS011;51109;47.414;18.954;2024-03-02T08:26:07;83.80;;;42.17;;
64684;SDS011;51109;47.414;18.954;2024-03-02T08:28:36;96.22;;;45.97;;
64684;SDS011;51109;47.414;18.954;2024-03-02T08:31:08;88.18;;;44.05;;
64684;SDS011;51109;47.414;18.954;2024-03-02T08:33:34;88.60;;;44.00;;
64684;SDS011;51109;47.414;18.954;2024-03-02T08:36:00;87.47;;;43.92;;
64684;SDS011;51109;47.414;18.954;2024-03-02T08:38:26;88.28;;;46.03;;
64684;SDS011;51109;47.414;18.954;2024-03-02T08:40:52;73.13;;;41.33;;
64684;SDS011;51109;47.414;18.954;2024-03-02T08:43:18;82.43;;;41.78;;
64684;SDS011;51109;47.414;18.954;2024-03-02T08:45:45;71.93;;;41.22;;
64684;SDS011;51109;47.414;18.954;2024-03-02T08:48:10;82.00;;;40.53;;
64684;SDS011;51109;47.414;18.954;2024-03-02T08:50:36;76.47;;;41.88;;
64684;SDS011;51109;47.414;18.954;2024-03-02T08:53:03;79.13;;;41.78;;
64684;SDS011;51109;47.414;18.954;2024-03-02T08:55:29;78.35;;;41.70;;
64684;SDS011;51109;47.414;18.954;2024-03-02T08:57:55;85.55;;;43.20;;
64684;SDS011;51109;47.414;18.954;2024-03-02T09:00:21;78.60;;;43.92;;
64684;SDS011;51109;47.414;18.954;2024-03-02T09:02:48;79.57;;;43.15;;
64684;SDS011;51109;47.414;18.954;2024-03-02T09:05:14;75.38;;;41.33;;
64684;SDS011;51109;47.414;18.954;2024-03-02T09:07:40;77.57;;;40.45;;
64684;SDS011;51109;47.414;18.954;2024-03-02T09:10:06;72.43;;;37.88;;
64684;SDS011;51109;47.414;18.954;2024-03-02T09:12:34;68.88;;;37.13;;
64684;SDS011;51109;47.414;18.954;2024-03-02T09:15:01;70.95;;;37.22;;
64684;SDS011;51109;47.414;18.954;2024-03-02T09:17:28;71.82;;;37.42;;
64684;SDS011;51109;47.414;18.954;2024-03-02T09:19:54;66.10;;;36.05;;
64684;SDS011;51109;47.414;18.954;2024-03-02T09:22:20;66.43;;;37.58;;
64684;SDS011;51109;47.414;18.954;2024-03-02T09:24:46;69.25;;;37.63;;
64684;SDS011;51109;47.414;18.954;2024-03-02T09:27:12;64.90;;;36.88;;
64684;SDS011;51109;47.414;18.954;2024-03-02T09:29:38;71.45;;;35.70;;
64684;SDS011;51109;47.414;18.954;2024-03-02T09:32:05;65.35;;;35.70;;
64684;SDS011;51109;47.414;18.954;2024-03-02T09:34:31;65.03;;;37.33;;
64684;SDS011;51109;47.414;18.954;2024-03-02T09:36:57;65.72;;;36.10;;
64684;SDS011;51109;47.414;18.954;2024-03-02T09:39:23;63.60;;;35.67;;
64684;SDS011;51109;47.414;18.954;2024-03-02T09:41:50;61.35;;;36.22;;
64684;SDS011;51109;47.414;18.954;2024-03-02T09:44:16;65.78;;;36.08;;
64684;SDS011;51109;47.414;18.954;2024-03-02T09:46:42;66.07;;;36.67;;
64684;SDS011;51109;47.414;18.954;2024-03-02T09:49:12;65.57;;;36.38;;
64684;SDS011;51109;47.414;18.954;2024-03-02T09:51:38;65.60;;;37.13;;
64684;SDS011;51109;47.414;18.954;2024-03-02T09:54:04;67.93;;;39.17;;
64684;SDS011;51109;47.414;18.954;2024-03-02T09:56:33;67.55;;;39.33;;
64684;SDS011;51109;47.414;18.954;2024-03-02T09:58:59;66.40;;;34.72;;
64684;SDS011;51109;47.414;18.954;2024-03-02T10:01:25;65.85;;;36.05;;
64684;SDS011;51109;47.414;18.954;2024-03-02T10:03:51;57.38;;;33.92;;
64684;SDS011;51109;47.414;18.954;2024-03-02T10:08:48;66.60;;;34.28;;
64684;SDS011;51109;47.414;18.954;2024-03-02T10:14:10;57.13;;;33.42;;
64684;SDS011;51109;47.414;18.954;2024-03-02T10:16:37;64.75;;;33.72;;
64684;SDS011;51109;47.414;18.954;2024-03-02T10:19:23;63.28;;;34.40;;
64684;SDS011;51109;47.414;18.954;2024-03-02T10:21:50;52.60;;;31.02;;
64684;SDS011;51109;47.414;18.954;2024-03-02T10:24:17;59.60;;;33.42;;
64684;SDS011;51109;47.414;18.954;2024-03-02T10:26:44;59.05;;;33.65;;
64684;SDS011;51109;47.414;18.954;2024-03-02T10:29:10;62.88;;;33.22;;
64684;SDS011;51109;47.414;18.954;2024-03-02T10:31:41;58.15;;;34.00;;
64684;SDS011;51109;47.414;18.954;2024-03-02T10:34:08;57.45;;;32.85;;
64684;SDS011;51109;47.414;18.954;2024-03-02T10:36:36;56.13;;;33.03;;
64684;SDS011;51109;47.414;18.954;2024-03-02T10:39:05;52.28;;;31.10;;
64684;SDS011;51109;47.414;18.954;2024-03-02T10:41:33;57.58;;;33.03;;
64684;SDS011;51109;47.414;18.954;2024-03-02T10:44:01;56.90;;;32.13;;
64684;SDS011;51109;47.414;18.954;2024-03-02T10:46:28;56.13;;;31.48;;
64684;SDS011;51109;47.414;18.954;2024-03-02T10:48:56;53.20;;;30.70;;
64684;SDS011;51109;47.414;18.954;2024-03-02T10:51:26;52.42;;;29.08;;
64684;SDS011;51109;47.414;18.954;2024-03-02T10:53:57;44.72;;;26.70;;
64684;SDS011;51109;47.414;18.954;2024-03-02T10:56:30;47.75;;;29.05;;
64684;SDS011;51109;47.414;18.954;2024-03-02T10:59:45;50.72;;;28.42;;
64684;SDS011;51109;47.414;18.954;2024-03-02T11:01:58;45.33;;;24.77;;
64684;SDS011;51109;47.414;18.954;2024-03-02T11:04:29;42.40;;;27.45;;
64684;SDS011;51109;47.414;18.954;2024-03-02T11:07:02;42.95;;;27.20;;
64684;SDS011;51109;47.414;18.954;2024-03-02T11:09:37;41.10;;;24.88;;
64684;SDS011;51109;47.414;18.954;2024-03-02T11:12:08;38.45;;;23.60;;
64684;SDS011;51109;47.414;18.954;2024-03-02T11:14:40;43.80;;;25.42;;
64684;SDS011;51109;47.414;18.954;2024-03-02T11:17:10;39.35;;;23.27;;
64684;SDS011;51109;47.414;18.954;2024-03-02T11:19:38;40.92;;;22.85;;
64684;SDS011;51109;47.414;18.954;2024-03-02T11:22:05;36.50;;;23.50;;
64684;SDS011;51109;47.414;18.954;2024-03-02T11:24:32;40.05;;;23.85;;
64684;SDS011;51109;47.414;18.954;2024-03-02T11:26:59;40.08;;;24.17;;
64684;SDS011;51109;47.414;18.954;2024-03-02T11:32:04;40.70;;;23.10;;
64684;SDS011;51109;47.414;18.954;2024-03-02T11:34:44;38.05;;;22.10;;
64684;SDS011;51109;47.414;18.954;2024-03-02T11:37:12;39.58;;;24.20;;
64684;SDS011;51109;47.414;18.954;2024-03-02T11:39:39;37.25;;;22.70;;
64684;SDS011;51109;47.414;18.954;2024-03-02T11:42:05;42.60;;;25.67;;
64684;SDS011;51109;47.414;18.954;2024-03-02T11:44:33;36.90;;;22.52;;
64684;SDS011;51109;47.414;18.954;2024-03-02T11:49:38;33.92;;;20.85;;
64684;SDS011;51109;47.414;18.954;2024-03-02T11:52:07;30.02;;;19.55;;
64684;SDS011;51109;47.414;18.954;2024-03-02T11:54:35;26.42;;;19.05;;
64684;SDS011;51109;47.414;18.954;2024-03-02T11:57:04;28.35;;;20.13;;
64684;SDS011;51109;47.414;18.954;2024-03-02T11:59:31;28.23;;;19.50;;
64684;SDS011;51109;47.414;18.954;2024-03-02T12:01:58;30.88;;;19.10;;
64684;SDS011;51109;47.414;18.954;2024-03-02T12:04:24;26.17;;;18.05;;
64684;SDS011;51109;47.414;18.954;2024-03-02T12:06:55;27.83;;;18.58;;
64684;SDS011;51109;47.414;18.954;2024-03-02T12:09:25;32.95;;;19.17;;
64684;SDS011;51109;47.414;18.954;2024-03-02T12:12:08;29.27;;;19.38;;
64684;SDS011;51109;47.414;18.954;2024-03-02T12:14:36;28.13;;;19.08;;
64684;SDS011;51109;47.414;18.954;2024-03-02T12:17:03;27.30;;;17.92;;
64684;SDS011;51109;47.414;18.954;2024-03-02T12:19:30;28.30;;;18.35;;
64684;SDS011;51109;47.414;18.954;2024-03-02T12:21:57;27.45;;;18.75;;
64684;SDS011;51109;47.414;18.954;2024-03-02T12:24:23;25.08;;;18.65;;
64684;SDS011;51109;47.414;18.954;2024-03-02T12:26:53;35.47;;;18.77;;
64684;SDS011;51109;47.414;18.954;2024-03-02T12:29:19;28.00;;;17.88;;
64684;SDS011;51109;47.414;18.954;2024-03-02T12:31:50;30.27;;;18.90;;
64684;SDS011;51109;47.414;18.954;2024-03-02T12:34:17;32.67;;;20.70;;
64684;SDS011;51109;47.414;18.954;2024-03-02T12:36:45;29.88;;;19.98;;
64684;SDS011;51109;47.414;18.954;2024-03-02T12:39:15;33.35;;;20.88;;
64684;SDS011;51109;47.414;18.954;2024-03-02T12:41:42;26.33;;;19.23;;
64684;SDS011;51109;47.414;18.954;2024-03-02T12:44:08;31.65;;;20.08;;
64684;SDS011;51109;47.414;18.954;2024-03-02T12:46:34;25.58;;;18.55;;
64684;SDS011;51109;47.414;18.954;2024-03-02T12:49:11;30.85;;;20.73;;
64684;SDS011;51109;47.414;18.954;2024-03-02T12:51:39;25.80;;;18.80;;
64684;SDS011;51109;47.414;18.954;2024-03-02T12:54:06;27.75;;;18.00;;
64684;SDS011;51109;47.414;18.954;2024-03-02T12:56:33;28.30;;;18.35;;
64684;SDS011;51109;47.414;18.954;2024-03-02T12:59:00;28.27;;;19.15;;
64684;SDS011;51109;47.414;18.954;2024-03-02T13:01:26;31.35;;;19.25;;
64684;SDS011;51109;47.414;18.954;2024-03-02T13:03:52;31.58;;;19.85;;
64684;SDS011;51109;47.414;18.954;2024-03-02T13:06:20;32.55;;;19.95;;
64684;SDS011;51109;47.414;18.954;2024-03-02T13:08:46;34.00;;;21.08;;
64684;SDS011;51109;47.414;18.954;2024-03-02T13:11:13;33.38;;;20.77;;
64684;SDS011;51109;47.414;18.954;2024-03-02T13:13:39;35.67;;;21.77;;
64684;SDS011;51109;47.414;18.954;2024-03-02T13:16:09;36.58;;;22.00;;
64684;SDS011;51109;47.414;18.954;2024-03-02T13:18:35;35.05;;;21.42;;
64684;SDS011;51109;47.414;18.954;2024-03-02T13:21:02;35.83;;;21.15;;
64684;SDS011;51109;47.414;18.954;2024-03-02T13:23:28;32.75;;;21.48;;
64684;SDS011;51109;47.414;18.954;2024-03-02T13:25:56;29.92;;;19.77;;
64684;SDS011;51109;47.414;18.954;2024-03-02T13:28:23;38.00;;;20.60;;
64684;SDS011;51109;47.414;18.954;2024-03-02T13:30:52;29.63;;;19.95;;
64684;SDS011;51109;47.414;18.954;2024-03-02T13:33:18;32.30;;;19.95;;
64684;SDS011;51109;47.414;18.954;2024-03-02T13:35:50;32.85;;;20.80;;
64684;SDS011;51109;47.414;18.954;2024-03-02T13:38:17;34.83;;;21.10;;
64684;SDS011;51109;47.414;18.954;2024-03-02T13:40:44;35.80;;;20.98;;
64684;SDS011;51109;47.414;18.954;2024-03-02T13:43:10;38.10;;;23.13;;
64684;SDS011;51109;47.414;18.954;2024-03-02T13:45:37;41.78;;;23.00;;
64684;SDS011;51109;47.414;18.954;2024-03-02T13:48:04;39.17;;;23.77;;
64684;SDS011;51109;47.414;18.954;2024-03-02T13:50:30;41.63;;;24.38;;
64684;SDS011;51109;47.414;18.954;2024-03-02T13:52:57;43.88;;;24.52;;
64684;SDS011;51109;47.414;18.954;2024-03-02T13:55:22;45.65;;;26.48;;
64684;SDS011;51109;47.414;18.954;2024-03-02T13:57:48;48.33;;;27.02;;
64684;SDS011;51109;47.414;18.954;2024-03-02T14:00:17;52.13;;;28.10;;
64684;SDS011;51109;47.414;18.954;2024-03-02T14:02:45;50.00;;;26.42;;
64684;SDS011;51109;47.414;18.954;2024-03-02T14:05:11;47.15;;;25.42;;
64684;SDS011;51109;47.414;18.954;2024-03-02T14:07:40;50.00;;;24.10;;
64684;SDS011;51109;47.414;18.954;2024-03-02T14:10:07;36.35;;;21.65;;
64684;SDS011;51109;47.414;18.954;2024-03-02T14:12:33;42.83;;;23.17;;
64684;SDS011;51109;47.414;18.954;2024-03-02T14:14:59;47.05;;;24.42;;
64684;SDS011;51109;47.414;18.954;2024-03-02T14:17:27;49.60;;;26.00;;
64684;SDS011;51109;47.414;18.954;2024-03-02T14:19:53;47.97;;;25.55;;
64684;SDS011;51109;47.414;18.954;2024-03-02T14:22:20;58.38;;;29.10;;